Time;durP1;ratioP1;P1;durP2;ratioP2;P2;SDS_P1;SDS_P2;PMS_P1;PMS_P2;Temp;Humidity;BMP_temperature;BMP_pressure;BME280_temperature;BME280_humidity;BME280_pressure;Samples;Min_cycle;Max_cycle;Signal;HPM_P1;HPM_P2
2023/03/21 00:00:27;;;;;;;7.80;6.97;;;11.60;79.40;;;;;;5017949;28;20200;-80
2023/03/21 00:02:53;;;;;;;8.30;7.60;;;11.60;79.70;;;;;;5029899;28;20278;-80
2023/03/21 00:05:19;;;;;;;8.53;7.73;;;11.70;79.60;;;;;;5037135;28;20708;-82
2023/03/21 00:07:45;;;;;;;7.70;7.00;;;11.70;79.50;;;;;;5035947;28;20298;-81
2023/03/21 00:10:13;;;;;;;7.97;7.17;;;11.60;80.70;;;;;;5017213;28;20270;-80
2023/03/21 00:12:39;;;;;;;9.23;8.40;;;11.50;80.80;;;;;;5034768;28;20209;-81
2023/03/21 00:15:06;;;;;;;7.90;7.00;;;11.50;80.70;;;;;;5016321;28;20265;-80
2023/03/21 00:17:32;;;;;;;8.57;7.63;;;11.50;80.30;;;;;;5035073;28;20179;-80
2023/03/21 00:19:59;;;;;;;7.57;6.80;;;11.40;80.60;;;;;;5022664;28;20582;-82
2023/03/21 00:22:26;;;;;;;7.13;6.53;;;11.40;81.10;;;;;;5017800;28;20203;-80
2023/03/21 00:24:55;;;;;;;7.20;6.60;;;11.30;81.30;;;;;;5016534;28;20182;-82
2023/03/21 00:27:21;;;;;;;7.23;6.53;;;11.40;80.70;;;;;;5016828;28;20268;-78
2023/03/21 00:29:48;;;;;;;8.17;6.20;;;11.40;80.60;;;;;;5017201;28;20278;-80
2023/03/21 00:32:15;;;;;;;6.80;6.13;;;11.40;80.70;;;;;;5024568;28;20237;-81
2023/03/21 00:34:43;;;;;;;6.10;5.60;;;11.40;80.60;;;;;;5017279;28;20209;-81
2023/03/21 00:37:13;;;;;;;6.23;5.63;;;11.30;81.30;;;;;;5024780;28;20186;-79
2023/03/21 00:39:39;;;;;;;8.10;5.80;;;11.30;81.50;;;;;;5036905;28;20205;-80
2023/03/21 00:42:04;;;;;;;6.13;5.53;;;11.30;82.00;;;;;;5037515;28;20194;-80
2023/03/21 00:44:35;;;;;;;6.53;5.40;;;11.40;80.60;;;;;;5036865;28;20181;-79
2023/03/21 00:47:02;;;;;;;6.23;5.73;;;11.40;80.80;;;;;;5037035;28;20292;-81
2023/03/21 00:49:32;;;;;;;6.80;6.20;;;11.30;81.30;;;;;;5036146;28;20266;-80
2023/03/21 00:51:59;;;;;;;5.53;5.13;;;11.30;81.80;;;;;;5034970;28;20190;-81
2023/03/21 00:54:24;;;;;;;6.30;5.70;;;11.40;81.20;;;;;;5036212;28;20198;-79
2023/03/21 00:56:50;;;;;;;6.90;6.00;;;11.40;80.00;;;;;;5037388;28;20337;-80
2023/03/21 00:59:16;;;;;;;6.83;5.83;;;11.30;81.50;;;;;;5036620;28;20202;-80
2023/03/21 01:01:42;;;;;;;7.00;6.27;;;11.30;81.10;;;;;;5036598;28;20185;-80
2023/03/21 01:04:12;;;;;;;5.63;5.10;;;11.30;81.30;;;;;;5034774;28;20703;-80
2023/03/21 01:06:38;;;;;;;6.37;5.87;;;11.20;82.20;;;;;;5023975;28;20260;-79
2023/03/21 01:09:06;;;;;;;5.30;4.90;;;11.20;81.90;;;;;;5016385;28;20173;-82
2023/03/21 01:11:33;;;;;;;5.70;5.20;;;11.40;80.70;;;;;;5025128;28;20189;-80
2023/03/21 01:13:59;;;;;;;5.97;5.20;;;11.30;80.90;;;;;;5035481;28;20194;-82
2023/03/21 01:16:26;;;;;;;5.53;5.10;;;11.20;81.40;;;;;;5018827;28;20191;-81
2023/03/21 01:18:52;;;;;;;5.77;5.30;;;11.20;81.80;;;;;;5037383;28;20249;-79
2023/03/21 01:21:17;;;;;;;6.77;5.50;;;11.20;82.40;;;;;;5029221;28;20591;-80
2023/03/21 01:23:43;;;;;;;6.20;5.70;;;11.10;82.70;;;;;;5016471;28;20190;-80
2023/03/21 01:26:10;;;;;;;5.40;4.90;;;11.10;82.80;;;;;;5016756;28;20229;-81
2023/03/21 01:28:38;;;;;;;7.23;5.80;;;11.10;82.90;;;;;;5022104;28;20714;-82
2023/03/21 01:31:04;;;;;;;5.40;5.00;;;11.10;82.60;;;;;;5016236;28;20186;-80
2023/03/21 01:33:31;;;;;;;5.37;4.73;;;11.10;82.50;;;;;;5016677;28;20200;-80
2023/03/21 01:35:57;;;;;;;5.50;5.07;;;11.20;81.20;;;;;;5016601;28;20175;-81
2023/03/21 01:38:24;;;;;;;5.23;4.83;;;11.10;81.20;;;;;;5015726;28;20181;-80
2023/03/21 01:40:50;;;;;;;5.67;5.17;;;11.10;81.20;;;;;;5015302;28;20170;-80
2023/03/21 01:43:20;;;;;;;5.90;5.40;;;11.10;81.70;;;;;;5032300;28;20264;-81
2023/03/21 01:46:09;;;;;;;6.47;5.80;;;11.00;82.80;;;;;;5032488;28;20230;-80
2023/03/21 01:48:40;;;;;;;6.07;5.47;;;10.80;83.50;;;;;;5010392;28;20194;-80
2023/03/21 01:51:07;;;;;;;5.93;5.33;;;10.90;83.30;;;;;;5017260;28;20171;-79
2023/03/21 01:53:36;;;;;;;6.23;5.60;;;10.80;83.50;;;;;;5016295;28;20313;-79
2023/03/21 01:56:07;;;;;;;5.77;5.23;;;10.70;84.40;;;;;;5016159;28;20263;-79
2023/03/21 01:58:34;;;;;;;5.77;5.27;;;10.70;84.50;;;;;;5016323;28;20178;-83
2023/03/21 02:01:01;;;;;;;5.60;5.10;;;10.70;84.80;;;;;;5014069;28;20261;-82
2023/03/21 02:03:36;;;;;;;6.40;5.03;;;10.70;84.70;;;;;;5014097;28;20204;-81
2023/03/21 02:06:11;;;;;;;5.87;5.27;;;10.70;85.10;;;;;;5012750;28;20261;-81
2023/03/21 02:08:37;;;;;;;6.20;5.53;;;10.70;85.00;;;;;;5014186;28;20184;-81
2023/03/21 02:11:03;;;;;;;5.47;5.07;;;10.70;84.50;;;;;;5014986;28;20178;-80
2023/03/21 02:13:28;;;;;;;5.33;4.83;;;10.70;84.20;;;;;;5018295;28;20190;-81
2023/03/21 02:16:20;;;;;;;5.83;4.60;;;10.60;84.00;;;;;;5002291;28;20286;-80
2023/03/21 02:19:01;;;;;;;5.20;4.80;;;10.60;84.20;;;;;;5013727;28;20332;-79
2023/03/21 02:21:26;;;;;;;5.10;4.70;;;10.60;84.40;;;;;;5001721;28;20651;-81
2023/03/21 02:24:10;;;;;;;4.93;4.53;;;10.60;84.40;;;;;;5022773;28;20213;-80
2023/03/21 02:26:42;;;;;;;5.50;5.00;;;10.60;83.50;;;;;;5020237;28;20213;-80
2023/03/21 02:29:45;;;;;;;5.30;4.90;;;10.60;84.20;;;;;;5019300;28;20173;-79
2023/03/21 02:32:29;;;;;;;5.50;5.03;;;10.40;84.70;;;;;;5025331;28;20207;-79
2023/03/21 02:35:12;;;;;;;5.03;4.53;;;10.40;84.50;;;;;;5010595;28;20246;-79
2023/03/21 02:37:43;;;;;;;5.20;4.70;;;10.30;84.70;;;;;;5066490;22;20150;-84
2023/03/21 02:40:13;;;;;;;5.63;4.73;;;10.40;85.00;;;;;;4985555;28;20206;-86
2023/03/21 02:42:57;;;;;;;5.67;5.17;;;10.40;84.60;;;;;;4984719;28;20830;-85
2023/03/21 02:45:29;;;;;;;6.33;5.20;;;10.20;85.00;;;;;;4986526;28;20245;-86
2023/03/21 02:48:04;;;;;;;5.20;4.70;;;10.30;85.70;;;;;;4986375;28;20276;-85
2023/03/21 02:50:50;;;;;;;5.30;4.80;;;10.30;85.30;;;;;;4986187;28;20189;-84
2023/03/21 02:53:19;;;;;;;5.73;5.00;;;10.30;85.20;;;;;;4985810;28;20191;-86
2023/03/21 02:55:47;;;;;;;5.07;4.67;;;10.30;84.50;;;;;;4985916;28;20214;-87
2023/03/21 02:58:22;;;;;;;5.47;4.93;;;10.30;84.80;;;;;;4984321;28;20889;-87
2023/03/21 03:00:48;;;;;;;5.27;4.77;;;10.30;85.50;;;;;;4984307;28;20217;-85
2023/03/21 03:03:14;;;;;;;5.27;4.87;;;10.20;85.80;;;;;;4982624;28;20178;-86
2023/03/21 03:05:49;;;;;;;4.83;4.33;;;10.30;86.10;;;;;;4985015;28;20198;-85
2023/03/21 03:08:34;;;;;;;4.90;4.53;;;10.20;86.40;;;;;;5002967;28;20220;-87
2023/03/21 03:11:18;;;;;;;5.67;5.17;;;10.20;86.50;;;;;;5003587;28;20208;-84
2023/03/21 03:14:21;;;;;;;5.90;5.00;;;10.20;86.20;;;;;;5003705;28;20292;-86
2023/03/21 03:17:13;;;;;;;5.83;5.10;;;10.20;85.70;;;;;;5005147;28;20189;-85
2023/03/21 03:20:24;;;;;;;8.63;4.87;;;10.20;85.60;;;;;;4996441;28;20209;-83
2023/03/21 03:22:54;;;;;;;5.57;5.07;;;10.10;85.70;;;;;;4958703;28;20297;-84
2023/03/21 03:25:42;;;;;;;5.27;4.87;;;10.00;86.20;;;;;;4986417;28;20194;-85
2023/03/21 03:28:10;;;;;;;5.20;4.70;;;10.00;86.50;;;;;;4986410;28;20235;-85
2023/03/21 03:30:37;;;;;;;4.90;4.50;;;10.00;86.90;;;;;;4984361;28;20178;-86
2023/03/21 03:33:05;;;;;;;5.50;5.00;;;9.90;86.90;;;;;;4984931;28;20178;-85
2023/03/21 03:35:31;;;;;;;5.33;4.83;;;9.90;87.30;;;;;;4984468;28;20183;-86
2023/03/21 03:38:00;;;;;;;5.37;4.83;;;9.80;87.10;;;;;;4985536;28;20210;-85
2023/03/21 03:40:26;;;;;;;5.70;5.20;;;9.90;87.20;;;;;;4984359;28;20253;-85
2023/03/21 03:42:53;;;;;;;5.43;4.93;;;9.80;87.80;;;;;;4985576;28;20186;-85
2023/03/21 03:45:28;;;;;;;5.43;4.93;;;9.80;88.10;;;;;;4985985;28;20228;-85
2023/03/21 03:48:10;;;;;;;6.17;5.57;;;9.70;88.30;;;;;;4985352;28;20221;-85
2023/03/21 03:50:53;;;;;;;5.37;4.87;;;9.70;88.90;;;;;;4984594;28;20225;-85
2023/03/21 03:53:31;;;;;;;6.13;5.53;;;9.70;88.20;;;;;;4985112;28;20177;-84
2023/03/21 03:55:59;;;;;;;5.70;5.17;;;9.80;87.20;;;;;;4983496;28;20213;-84
2023/03/21 03:58:26;;;;;;;5.47;5.00;;;9.70;88.40;;;;;;4982946;28;20206;-85
2023/03/21 04:00:53;;;;;;;5.67;4.63;;;9.60;87.30;;;;;;4982493;28;20220;-84
2023/03/21 04:03:19;;;;;;;4.87;4.47;;;9.50;87.80;;;;;;4986829;28;20220;-85
2023/03/21 04:05:45;;;;;;;4.90;4.53;;;9.50;88.20;;;;;;4988047;28;20193;-85
2023/03/21 04:08:13;;;;;;;5.43;4.90;;;9.40;88.60;;;;;;5001471;28;20237;-85
2023/03/21 04:10:40;;;;;;;5.63;4.70;;;9.40;88.30;;;;;;5002927;28;20173;-85
2023/03/21 04:13:06;;;;;;;6.33;5.00;;;9.30;89.50;;;;;;4990483;28;20190;-86
2023/03/21 04:15:31;;;;;;;5.17;4.73;;;9.30;89.10;;;;;;4986731;28;20193;-86
2023/03/21 04:17:57;;;;;;;8.37;5.10;;;9.20;89.70;;;;;;4992862;28;20210;-85
2023/03/21 04:20:23;;;;;;;5.90;5.40;;;9.20;90.60;;;;;;4994656;28;20734;-84
2023/03/21 04:22:50;;;;;;;6.13;5.53;;;9.20;91.40;;;;;;5008528;28;20244;-85
2023/03/21 04:25:15;;;;;;;13.67;5.83;;;9.20;92.20;;;;;;5008589;28;20171;-85
2023/03/21 04:27:41;;;;;;;6.80;5.90;;;9.20;92.10;;;;;;5004882;28;20212;-84
2023/03/21 04:30:10;;;;;;;7.23;5.57;;;9.30;92.40;;;;;;4990317;28;20528;-85
2023/03/21 04:32:38;;;;;;;6.07;5.47;;;9.30;92.20;;;;;;4984552;28;20192;-85
2023/03/21 04:35:05;;;;;;;8.23;5.77;;;9.30;91.60;;;;;;4983070;28;20203;-85
2023/03/21 04:37:32;;;;;;;6.43;5.27;;;9.30;92.00;;;;;;4982482;28;20377;-85
2023/03/21 04:39:58;;;;;;;6.63;6.10;;;9.40;91.60;;;;;;4982831;28;20663;-85
2023/03/21 04:42:24;;;;;;;6.50;5.90;;;9.30;91.60;;;;;;4983280;28;20413;-85
2023/03/21 04:44:50;;;;;;;6.40;5.80;;;9.30;93.50;;;;;;4982227;28;20190;-85
2023/03/21 04:47:19;;;;;;;5.50;5.07;;;9.30;93.20;;;;;;4981793;28;20210;-85
2023/03/21 04:49:46;;;;;;;10.33;6.27;;;9.30;93.20;;;;;;4982237;28;20648;-84
2023/03/21 04:52:13;;;;;;;6.03;5.53;;;9.30;92.80;;;;;;4982805;28;20168;-85
2023/03/21 04:54:38;;;;;;;6.20;5.60;;;9.30;92.40;;;;;;4980792;28;20173;-83
2023/03/21 04:57:04;;;;;;;6.47;5.80;;;9.30;93.40;;;;;;4980572;28;20192;-84
2023/03/21 04:59:30;;;;;;;6.10;5.60;;;9.30;92.80;;;;;;4980318;28;20204;-87
2023/03/21 05:01:57;;;;;;;6.33;5.50;;;9.20;93.50;;;;;;4981389;28;20184;-84
2023/03/21 05:04:23;;;;;;;6.10;5.50;;;9.10;93.80;;;;;;4979104;28;20183;-85
2023/03/21 05:06:49;;;;;;;6.80;6.20;;;9.10;93.70;;;;;;4991740;28;20741;-86
2023/03/21 05:09:15;;;;;;;6.33;5.27;;;9.00;93.60;;;;;;4982412;28;20233;-86
2023/03/21 05:11:41;;;;;;;7.97;5.60;;;9.00;93.70;;;;;;4993478;28;20279;-83
2023/03/21 05:14:13;;;;;;;9.20;5.53;;;9.00;93.70;;;;;;4990973;28;20180;-85
2023/03/21 05:16:47;;;;;;;6.20;5.30;;;9.00;93.20;;;;;;4979286;28;20192;-85
2023/03/21 05:19:14;;;;;;;6.53;5.87;;;9.00;93.20;;;;;;4980660;28;20296;-85
2023/03/21 05:21:40;;;;;;;5.20;4.80;;;9.00;93.00;;;;;;4978843;28;20188;-85
2023/03/21 05:24:13;;;;;;;12.10;6.60;;;9.10;92.50;;;;;;5000469;28;20261;-85
2023/03/21 05:26:40;;;;;;;6.90;6.20;;;9.00;92.30;;;;;;5000059;28;20195;-86
2023/03/21 05:29:06;;;;;;;6.23;5.73;;;8.90;93.40;;;;;;5001026;28;20191;-85
2023/03/21 05:31:32;;;;;;;9.13;6.93;;;8.90;93.20;;;;;;4999814;28;20186;-85
2023/03/21 05:33:57;;;;;;;7.90;7.23;;;8.90;93.20;;;;;;5001310;28;20181;-86
2023/03/21 05:36:23;;;;;;;8.83;8.03;;;9.00;92.50;;;;;;5000121;28;20645;-86
2023/03/21 05:38:50;;;;;;;6.87;6.23;;;8.90;92.10;;;;;;4999848;28;20485;-86
2023/03/21 05:41:16;;;;;;;10.60;6.23;;;8.80;92.80;;;;;;5001823;28;20179;-87
2023/03/21 05:43:42;;;;;;;8.43;6.67;;;8.60;93.90;;;;;;4991976;28;20191;-85
2023/03/21 05:46:08;;;;;;;8.40;6.50;;;8.60;94.80;;;;;;4982036;28;20237;-83
2023/03/21 05:48:34;;;;;;;10.97;6.13;;;8.50;96.40;;;;;;4983254;28;20274;-85
2023/03/21 05:51:02;;;;;;;8.43;5.90;;;8.40;95.40;;;;;;4983183;28;20180;-85
2023/03/21 05:53:27;;;;;;;8.87;5.87;;;8.40;96.20;;;;;;4981977;28;20186;-86
2023/03/21 05:55:53;;;;;;;9.03;5.67;;;8.40;95.30;;;;;;4981600;28;20175;-84
2023/03/21 05:58:18;;;;;;;7.10;5.50;;;8.30;96.50;;;;;;4981753;28;20376;-86
2023/03/21 06:00:45;;;;;;;6.50;5.90;;;8.30;96.80;;;;;;4981740;28;20246;-86
2023/03/21 06:03:10;;;;;;;5.57;5.07;;;8.40;96.30;;;;;;4983561;28;20629;-86
2023/03/21 06:05:36;;;;;;;6.53;5.33;;;8.40;96.20;;;;;;4966208;28;20191;-86
2023/03/21 06:08:01;;;;;;;5.57;5.00;;;8.40;96.00;;;;;;4989539;28;20213;-86
2023/03/21 06:10:27;;;;;;;7.33;5.07;;;8.50;95.50;;;;;;4991926;28;20178;-85
2023/03/21 06:12:53;;;;;;;5.73;5.13;;;8.50;95.40;;;;;;4983486;28;20229;-85
2023/03/21 06:15:18;;;;;;;6.07;5.50;;;8.60;94.60;;;;;;4980039;28;20195;-85
2023/03/21 06:17:44;;;;;;;8.87;8.10;;;8.60;95.00;;;;;;4965031;28;20279;-86
2023/03/21 06:20:10;;;;;;;5.93;5.50;;;8.70;94.50;;;;;;4986716;28;20241;-86
2023/03/21 06:22:36;;;;;;;6.03;5.53;;;8.80;94.30;;;;;;4982676;28;20558;-86
2023/03/21 06:25:03;;;;;;;9.50;8.70;;;8.80;95.20;;;;;;4982221;28;20245;-86
2023/03/21 06:27:29;;;;;;;6.10;5.60;;;8.80;95.30;;;;;;4970012;28;20328;-86
2023/03/21 06:29:56;;;;;;;70.57;64.60;;;8.80;95.80;;;;;;4969981;28;20214;-84
2023/03/21 06:32:22;;;;;;;11.73;10.63;;;8.70;96.00;;;;;;4978381;28;20186;-83
2023/03/21 06:34:48;;;;;;;12.40;11.27;;;8.80;96.70;;;;;;4975683;28;20198;-84
2023/03/21 06:37:13;;;;;;;10.13;6.20;;;8.80;96.80;;;;;;4969323;28;20258;-85
2023/03/21 06:39:39;;;;;;;5.30;4.77;;;8.80;97.00;;;;;;4969067;28;21203;-82
2023/03/21 06:42:05;;;;;;;5.00;4.50;;;8.80;97.50;;;;;;4969936;28;20191;-85
2023/03/21 06:44:31;;;;;;;6.50;5.90;;;8.90;97.70;;;;;;4965762;28;20198;-85
2023/03/21 06:46:56;;;;;;;4.57;4.17;;;8.90;96.80;;;;;;4971297;28;20253;-86
2023/03/21 06:49:22;;;;;;;5.30;4.80;;;8.90;97.10;;;;;;4966941;28;20242;-81
2023/03/21 06:51:48;;;;;;;5.93;5.37;;;8.90;97.70;;;;;;4965899;28;20238;-85
2023/03/21 06:54:16;;;;;;;5.73;5.03;;;8.90;98.20;;;;;;4968118;28;20191;-84
2023/03/21 06:56:42;;;;;;;5.77;5.27;;;8.80;98.90;;;;;;4973486;28;20205;-85
2023/03/21 06:59:07;;;;;;;5.97;5.47;;;8.90;98.70;;;;;;4980671;28;20222;-85
2023/03/21 07:01:34;;;;;;;7.13;5.80;;;8.90;97.60;;;;;;4984299;28;20206;-84
2023/03/21 07:04:00;;;;;;;6.00;5.50;;;8.90;97.20;;;;;;4986794;28;20171;-85
2023/03/21 07:06:26;;;;;;;6.10;5.50;;;8.80;97.60;;;;;;4976862;28;20721;-86
2023/03/21 07:08:54;;;;;;;6.23;5.73;;;8.90;98.60;;;;;;4968576;28;20226;-83
2023/03/21 07:11:21;;;;;;;7.90;5.60;;;8.80;99.60;;;;;;4951440;28;20187;-85
2023/03/21 07:13:48;;;;;;;6.60;6.03;;;8.70;99.90;;;;;;4970663;28;20194;-86
2023/03/21 07:16:14;;;;;;;7.37;6.77;;;8.80;99.30;;;;;;4967662;28;20190;-84
2023/03/21 07:18:40;;;;;;;7.13;6.30;;;9.00;99.10;;;;;;4971481;28;20460;-85
2023/03/21 07:21:06;;;;;;;6.73;6.10;;;9.20;96.20;;;;;;4969573;28;20195;-86
2023/03/21 07:23:32;;;;;;;8.73;6.03;;;8.90;96.60;;;;;;4967820;28;20624;-86
2023/03/21 07:25:58;;;;;;;6.87;6.20;;;8.90;98.80;;;;;;4954891;28;20202;-85
2023/03/21 07:28:23;;;;;;;6.90;6.30;;;9.00;98.80;;;;;;4969905;28;20242;-82
2023/03/21 07:30:56;;;;;;;7.33;5.93;;;9.10;95.40;;;;;;4949030;28;20223;-86
2023/03/21 07:33:22;;;;;;;5.90;5.40;;;9.20;94.80;;;;;;4967888;28;20573;-82
2023/03/21 07:35:52;;;;;;;7.27;5.47;;;9.30;94.20;;;;;;4969476;28;20221;-84
2023/03/21 07:38:19;;;;;;;5.83;4.90;;;9.40;94.30;;;;;;4970582;28;20764;-86
2023/03/21 07:40:46;;;;;;;6.17;5.43;;;9.30;94.30;;;;;;4965690;28;20810;-85
2023/03/21 07:43:13;;;;;;;5.77;5.27;;;9.40;95.20;;;;;;4968211;28;20195;-85
2023/03/21 07:45:39;;;;;;;6.47;5.87;;;9.50;92.90;;;;;;4971066;28;20215;-86
2023/03/21 07:48:05;;;;;;;5.53;4.63;;;9.70;90.50;;;;;;4946847;28;20657;-85
2023/03/21 07:50:31;;;;;;;5.80;4.60;;;9.90;89.70;;;;;;4965277;28;20435;-84
2023/03/21 07:52:56;;;;;;;5.50;5.00;;;10.00;89.40;;;;;;4967610;28;20187;-84
2023/03/21 07:55:22;;;;;;;6.20;4.87;;;10.20;88.10;;;;;;4965953;28;20195;-86
2023/03/21 07:57:51;;;;;;;4.73;4.33;;;10.50;87.50;;;;;;4968059;28;20209;-84
2023/03/21 08:00:24;;;;;;;8.30;4.60;;;10.70;85.00;;;;;;4967344;28;20198;-85
2023/03/21 08:02:54;;;;;;;6.53;4.70;;;10.80;82.80;;;;;;4970149;28;20498;-86
2023/03/21 08:05:28;;;;;;;4.77;4.33;;;10.80;82.70;;;;;;4966808;28;20428;-88
2023/03/21 08:07:55;;;;;;;5.00;4.50;;;10.60;85.30;;;;;;4966337;28;20448;-84
2023/03/21 08:10:20;;;;;;;6.40;5.70;;;10.40;87.50;;;;;;4966446;28;20175;-84
2023/03/21 08:12:47;;;;;;;8.77;5.50;;;10.60;88.30;;;;;;4967466;28;20695;-86
2023/03/21 08:15:14;;;;;;;6.00;5.50;;;10.70;88.10;;;;;;4965750;28;20274;-84
2023/03/21 08:17:40;;;;;;;6.13;5.53;;;10.70;85.50;;;;;;4968876;28;20293;-85
2023/03/21 08:20:08;;;;;;;5.70;5.20;;;10.90;84.40;;;;;;4965902;28;20279;-87
2023/03/21 08:22:35;;;;;;;5.57;5.07;;;11.10;84.80;;;;;;4967134;28;20196;-84
2023/03/21 08:25:03;;;;;;;6.13;4.83;;;11.20;82.80;;;;;;4968570;28;20284;-86
2023/03/21 08:27:30;;;;;;;5.10;4.70;;;11.40;81.10;;;;;;4970075;28;20193;-85
2023/03/21 08:29:56;;;;;;;4.77;4.23;;;11.40;80.30;;;;;;4980072;28;20204;-85
2023/03/21 08:32:28;;;;;;;4.73;4.33;;;11.50;79.50;;;;;;4979708;28;20173;-85
2023/03/21 08:34:54;;;;;;;16.87;5.47;;;11.60;79.20;;;;;;4980531;28;20167;-86
2023/03/21 08:37:23;;;;;;;5.40;4.60;;;11.60;79.20;;;;;;4992989;28;20230;-84
2023/03/21 08:39:49;;;;;;;4.77;4.33;;;11.60;78.40;;;;;;4989630;28;20197;-86
2023/03/21 08:42:15;;;;;;;5.27;4.77;;;11.80;79.00;;;;;;4973879;28;20195;-87
2023/03/21 08:44:40;;;;;;;9.80;4.77;;;11.80;78.40;;;;;;4976587;28;20185;-89
2023/03/21 08:47:07;;;;;;;5.03;4.10;;;11.90;79.10;;;;;;4976086;28;20628;-89
2023/03/21 08:49:34;;;;;;;4.57;4.13;;;12.10;76.40;;;;;;4976356;28;20259;-88
2023/03/21 08:52:00;;;;;;;3.93;3.63;;;12.00;76.80;;;;;;4993619;28;20614;-90
2023/03/21 08:54:25;;;;;;;4.80;4.10;;;12.00;75.90;;;;;;4991643;28;20735;-90
2023/03/21 08:56:51;;;;;;;4.10;3.80;;;11.70;77.00;;;;;;4978534;28;20196;-88
2023/03/21 08:59:17;;;;;;;3.97;3.57;;;11.90;78.60;;;;;;4979274;28;20217;-89
2023/03/21 09:01:42;;;;;;;6.13;3.93;;;11.70;78.40;;;;;;4978309;28;20213;-89
2023/03/21 09:04:09;;;;;;;3.83;3.53;;;11.80;76.00;;;;;;4979213;28;20190;-88
2023/03/21 09:06:45;;;;;;;4.07;3.77;;;12.00;74.70;;;;;;4990641;28;20194;-83
2023/03/21 09:09:11;;;;;;;4.30;3.90;;;12.10;74.40;;;;;;4997618;28;20221;-85
2023/03/21 09:11:37;;;;;;;5.33;4.33;;;12.00;75.40;;;;;;4980008;28;20202;-85
2023/03/21 09:14:03;;;;;;;4.30;3.87;;;12.10;75.20;;;;;;4979549;28;20198;-91
2023/03/21 09:16:30;;;;;;;5.07;3.70;;;12.10;73.80;;;;;;4962352;28;20529;-87
2023/03/21 09:18:57;;;;;;;4.13;3.47;;;12.20;74.00;;;;;;4980474;28;20201;-86
2023/03/21 09:21:24;;;;;;;4.00;3.70;;;12.20;73.80;;;;;;4992959;28;20199;-87
2023/03/21 09:23:54;;;;;;;4.10;3.73;;;12.20;75.70;;;;;;4999352;28;20175;-87
2023/03/21 09:26:20;;;;;;;4.07;3.77;;;12.00;76.70;;;;;;4999287;28;20196;-87
2023/03/21 09:28:46;;;;;;;4.30;4.00;;;11.70;78.30;;;;;;4998615;28;20209;-85
2023/03/21 09:31:15;;;;;;;4.17;3.77;;;12.00;75.50;;;;;;4981304;28;20182;-83
2023/03/21 09:33:42;;;;;;;4.60;4.20;;;12.20;75.70;;;;;;4981673;28;20174;-85
2023/03/21 09:36:13;;;;;;;3.80;3.50;;;11.90;77.90;;;;;;4979818;28;20181;-88
2023/03/21 09:38:44;;;;;;;4.00;3.70;;;12.00;77.20;;;;;;4979769;28;20293;-86
2023/03/21 09:41:27;;;;;;;3.80;3.50;;;12.10;74.70;;;;;;4980535;28;20218;-88
2023/03/21 09:44:13;;;;;;;6.80;4.33;;;12.20;73.90;;;;;;4980811;28;20182;-86
2023/03/21 09:47:02;;;;;;;4.60;3.73;;;12.40;73.40;;;;;;4981725;28;20220;-88
2023/03/21 09:49:39;;;;;;;6.07;4.40;;;12.60;71.50;;;;;;4987313;28;20226;-88
2023/03/21 09:52:15;;;;;;;4.60;4.10;;;12.30;73.00;;;;;;4988112;28;20182;-88
2023/03/21 09:54:44;;;;;;;4.37;3.97;;;12.60;70.30;;;;;;5000397;28;20174;-92
2023/03/21 09:57:26;;;;;;;112.63;20.77;;;12.40;70.90;;;;;;4982250;28;20187;-87
2023/03/21 09:59:53;;;;;;;8.57;4.83;;;12.40;70.90;;;;;;4977956;28;20202;-88
2023/03/21 10:02:31;;;;;;;5.37;4.20;;;12.50;71.20;;;;;;4979855;28;20182;-91
2023/03/21 10:04:59;;;;;;;10.70;5.00;;;12.50;73.60;;;;;;4980211;28;20185;-89
2023/03/21 10:07:29;;;;;;;17.30;6.20;;;12.60;70.90;;;;;;4997166;28;20202;-88
2023/03/21 10:09:58;;;;;;;11.13;5.57;;;12.60;72.10;;;;;;4981532;28;20190;-87
2023/03/21 10:12:29;;;;;;;5.23;4.70;;;12.70;71.20;;;;;;4981068;28;20187;-87
2023/03/21 10:14:57;;;;;;;8.10;4.70;;;12.50;72.10;;;;;;4963596;28;20178;-89
2023/03/21 10:17:33;;;;;;;5.57;5.07;;;12.50;71.00;;;;;;4980003;28;20179;-88
2023/03/21 10:20:23;;;;;;;5.80;5.20;;;12.50;71.90;;;;;;4983044;28;20711;-87
2023/03/21 10:22:54;;;;;;;6.80;4.80;;;12.60;70.90;;;;;;4968244;28;20185;-88
2023/03/21 10:25:29;;;;;;;5.53;4.87;;;12.70;71.70;;;;;;4982086;28;20191;-89
2023/03/21 10:27:55;;;;;;;5.13;4.63;;;12.70;71.10;;;;;;4984025;28;20218;-90
2023/03/21 10:30:37;;;;;;;5.80;5.30;;;12.80;71.20;;;;;;4982895;28;20243;-90
2023/03/21 10:33:08;;;;;;;5.43;4.90;;;12.60;71.10;;;;;;4982397;28;20178;-90
2023/03/21 10:35:36;;;;;;;4.73;4.30;;;12.60;72.20;;;;;;4985625;28;20613;-90
2023/03/21 10:38:03;;;;;;;5.37;4.87;;;12.70;70.70;;;;;;4984277;28;20710;-89
2023/03/21 10:40:28;;;;;;;5.67;5.17;;;12.70;69.60;;;;;;4985063;28;20708;-88
2023/03/21 10:42:56;;;;;;;5.43;4.93;;;12.90;70.80;;;;;;4985388;28;20306;-89
2023/03/21 10:45:23;;;;;;;5.90;5.40;;;12.90;71.10;;;;;;4985271;28;20238;-89
2023/03/21 10:47:50;;;;;;;8.00;5.63;;;12.90;70.40;;;;;;4984967;28;20219;-90
2023/03/21 10:50:24;;;;;;;5.23;4.83;;;13.30;68.60;;;;;;4995105;28;20182;-88
2023/03/21 10:52:59;;;;;;;7.23;5.03;;;13.50;68.40;;;;;;4985509;28;20186;-88
2023/03/21 10:55:33;;;;;;;5.80;5.20;;;13.70;69.00;;;;;;4984774;28;20713;-89
2023/03/21 10:58:09;;;;;;;5.97;5.47;;;13.90;67.00;;;;;;4981855;28;20200;-92
2023/03/21 11:00:40;;;;;;;7.80;5.30;;;14.00;67.90;;;;;;4983180;28;20192;-90
2023/03/21 11:03:16;;;;;;;32.07;7.87;;;14.20;65.60;;;;;;4982884;28;20169;-91
2023/03/21 11:05:41;;;;;;;10.23;5.00;;;14.20;65.00;;;;;;4965742;28;20193;-91
2023/03/21 11:08:17;;;;;;;6.20;5.00;;;13.90;66.00;;;;;;4981992;28;20216;-85
2023/03/21 11:11:02;;;;;;;6.83;4.90;;;13.80;66.60;;;;;;4988003;28;20193;-84
2023/03/21 11:13:43;;;;;;;5.93;4.83;;;14.60;62.60;;;;;;4991535;28;20215;-87
2023/03/21 11:16:21;;;;;;;5.60;5.20;;;15.50;61.30;;;;;;4973182;28;20181;-88
2023/03/21 11:18:55;;;;;;;6.30;5.17;;;16.20;59.40;;;;;;4989298;28;20195;-89
2023/03/21 11:21:26;;;;;;;7.97;5.33;;;15.80;58.60;;;;;;5002934;28;20186;-86
2023/03/21 11:23:54;;;;;;;5.87;5.20;;;15.30;60.50;;;;;;5009004;28;20167;-87
2023/03/21 11:26:35;;;;;;;7.27;5.40;;;15.30;59.70;;;;;;4992056;28;20247;-87
2023/03/21 11:29:21;;;;;;;5.70;5.20;;;15.40;61.50;;;;;;4985766;28;20226;-88
2023/03/21 11:31:47;;;;;;;5.90;5.33;;;15.30;60.10;;;;;;4979998;28;20198;-86
2023/03/21 11:34:29;;;;;;;8.37;5.83;;;15.50;60.20;;;;;;4989207;28;20235;-85
2023/03/21 11:37:00;;;;;;;8.27;5.83;;;16.00;58.10;;;;;;4988577;28;20186;-87
2023/03/21 11:39:39;;;;;;;5.77;5.20;;;16.50;57.70;;;;;;4990862;28;20269;-89
2023/03/21 11:42:25;;;;;;;5.70;5.20;;;16.30;55.80;;;;;;4998233;28;20163;-90
2023/03/21 11:45:11;;;;;;;6.03;5.03;;;16.80;55.40;;;;;;4993828;28;20259;-86
2023/03/21 11:47:38;;;;;;;5.53;5.03;;;17.10;54.40;;;;;;5000394;28;20194;-88
2023/03/21 11:50:17;;;;;;;5.63;5.20;;;17.10;55.20;;;;;;4955106;29;20187;-86
2023/03/21 11:53:05;;;;;;;5.33;4.70;;;16.50;54.50;;;;;;4967810;29;20171;-88
2023/03/21 11:55:36;;;;;;;6.37;5.47;;;17.10;52.50;;;;;;4977061;28;20235;-85
2023/03/21 11:58:39;;;;;;;4.73;4.43;;;17.40;52.20;;;;;;4983326;28;20225;-86
2023/03/21 12:01:11;;;;;;;5.20;4.57;;;17.20;51.90;;;;;;4982835;28;20166;-86
2023/03/21 12:04:22;;;;;;;4.80;4.43;;;17.10;52.70;;;;;;4968139;28;20248;-86
2023/03/21 12:06:57;;;;;;;4.30;3.93;;;16.60;54.80;;;;;;4971428;28;20221;-87
2023/03/21 12:09:23;;;;;;;4.43;4.03;;;17.00;52.90;;;;;;4986195;28;20226;-87
2023/03/21 12:12:10;;;;;;;5.20;3.90;;;16.90;51.50;;;;;;4965679;29;20187;-85
2023/03/21 12:15:03;;;;;;;8.73;4.53;;;16.80;51.60;;;;;;4965204;29;20201;-86
2023/03/21 12:17:48;;;;;;;5.30;4.20;;;17.00;51.40;;;;;;4947363;28;20197;-85
2023/03/21 12:21:05;;;;;;;4.53;3.60;;;17.20;52.00;;;;;;4970366;28;20171;-87
2023/03/21 12:23:54;;;;;;;3.70;3.40;;;17.40;49.30;;;;;;4984896;28;20412;-86
2023/03/21 12:26:29;;;;;;;5.07;3.90;;;17.40;49.90;;;;;;4986063;28;20213;-87
2023/03/21 12:29:07;;;;;;;3.70;3.33;;;17.50;49.50;;;;;;4987691;28;20265;-86
2023/03/21 12:31:48;;;;;;;3.97;3.30;;;17.60;48.60;;;;;;4987698;28;20180;-86
2023/03/21 12:34:30;;;;;;;5.20;3.53;;;17.40;50.40;;;;;;4987824;28;20175;-85
2023/03/21 12:37:07;;;;;;;3.80;3.50;;;17.00;49.20;;;;;;4987147;28;20217;-86
2023/03/21 12:39:42;;;;;;;3.57;3.27;;;17.20;50.10;;;;;;4988625;28;20218;-86
2023/03/21 12:42:28;;;;;;;3.10;2.90;;;16.60;51.80;;;;;;4987880;28;20189;-86
2023/03/21 12:45:01;;;;;;;2.93;2.73;;;17.20;50.10;;;;;;4984060;28;20222;-86
2023/03/21 12:47:31;;;;;;;3.37;3.03;;;17.50;47.10;;;;;;4989786;28;20217;-87
2023/03/21 12:50:00;;;;;;;3.43;3.13;;;17.70;44.90;;;;;;4986565;28;20655;-87
2023/03/21 12:52:30;;;;;;;4.03;3.27;;;17.90;45.20;;;;;;4987360;28;20182;-88
2023/03/21 12:55:01;;;;;;;3.57;3.27;;;17.40;48.50;;;;;;4985289;28;20169;-86
2023/03/21 12:57:52;;;;;;;3.77;3.37;;;17.30;50.40;;;;;;4987740;28;20207;-86
2023/03/21 13:00:36;;;;;;;3.73;3.40;;;17.70;48.50;;;;;;4989278;28;20207;-87
2023/03/21 13:03:16;;;;;;;3.95;3.60;;;18.10;48.40;;;;;;4972117;28;20204;-87
2023/03/21 13:06:01;;;;;;;17.73;4.68;;;18.60;47.50;;;;;;4993077;28;20212;-86
2023/03/21 13:08:36;;;;;;;4.13;3.72;;;19.00;44.60;;;;;;4991772;28;20220;-87